sensor_id;sensor_type;location;lat;lon;timestamp;P1;durP1;ratioP1;P2;durP2;ratioP2
55260;SDS011;41123;51.416;6.758;2022-08-01T00:00:24;12.95;;;7.55;;
55260;SDS011;41123;51.416;6.758;2022-08-01T00:02:50;11.50;;;7.35;;
55260;SDS011;41123;51.416;6.758;2022-08-01T00:05:17;13.02;;;6.97;;
55260;SDS011;41123;51.416;6.758;2022-08-01T00:07:43;11.95;;;7.63;;
55260;SDS011;41123;51.416;6.758;2022-08-01T00:10:10;11.77;;;7.07;;
55260;SDS011;41123;51.416;6.758;2022-08-01T00:12:37;12.98;;;7.10;;
55260;SDS011;41123;51.416;6.758;2022-08-01T00:15:04;11.13;;;7.35;;
55260;SDS011;41123;51.416;6.758;2022-08-01T00:17:30;11.05;;;6.90;;
55260;SDS011;41123;51.416;6.758;2022-08-01T00:19:56;11.23;;;7.70;;
55260;SDS011;41123;51.416;6.758;2022-08-01T00:22:23;12.60;;;7.53;;
55260;SDS011;41123;51.416;6.758;2022-08-01T00:24:49;13.30;;;7.55;;
55260;SDS011;41123;51.416;6.758;2022-08-01T00:27:15;11.93;;;7.32;;
55260;SDS011;41123;51.416;6.758;2022-08-01T00:29:41;12.35;;;7.50;;
55260;SDS011;41123;51.416;6.758;2022-08-01T00:32:07;14.85;;;7.90;;
55260;SDS011;41123;51.416;6.758;2022-08-01T00:34:34;15.63;;;7.40;;
55260;SDS011;41123;51.416;6.758;2022-08-01T00:37:00;14.15;;;7.47;;
55260;SDS011;41123;51.416;6.758;2022-08-01T00:39:26;12.55;;;7.40;;
55260;SDS011;41123;51.416;6.758;2022-08-01T00:41:52;12.15;;;7.97;;
55260;SDS011;41123;51.416;6.758;2022-08-01T00:44:19;11.40;;;7.90;;
55260;SDS011;41123;51.416;6.758;2022-08-01T00:46:45;11.80;;;7.88;;
55260;SDS011;41123;51.416;6.758;2022-08-01T00:49:11;13.20;;;7.73;;
55260;SDS011;41123;51.416;6.758;2022-08-01T00:51:38;16.02;;;8.00;;
55260;SDS011;41123;51.416;6.758;2022-08-01T00:54:04;16.13;;;8.47;;
55260;SDS011;41123;51.416;6.758;2022-08-01T00:56:30;14.10;;;7.60;;
55260;SDS011;41123;51.416;6.758;2022-08-01T00:58:57;13.77;;;8.17;;
55260;SDS011;41123;51.416;6.758;2022-08-01T01:01:24;15.20;;;7.75;;
55260;SDS011;41123;51.416;6.758;2022-08-01T01:03:51;11.85;;;7.47;;
55260;SDS011;41123;51.416;6.758;2022-08-01T01:08:46;13.68;;;8.35;;
55260;SDS011;41123;51.416;6.758;2022-08-01T01:11:31;15.20;;;8.55;;
55260;SDS011;41123;51.416;6.758;2022-08-01T01:14:00;12.07;;;7.57;;
55260;SDS011;41123;51.416;6.758;2022-08-01T01:16:27;16.02;;;8.15;;
55260;SDS011;41123;51.416;6.758;2022-08-01T01:18:56;14.88;;;8.35;;
55260;SDS011;41123;51.416;6.758;2022-08-01T01:24:11;14.75;;;8.45;;
55260;SDS011;41123;51.416;6.758;2022-08-01T01:29:16;17.40;;;9.18;;
55260;SDS011;41123;51.416;6.758;2022-08-01T01:31:48;16.67;;;9.07;;
55260;SDS011;41123;51.416;6.758;2022-08-01T01:34:17;16.48;;;8.77;;
55260;SDS011;41123;51.416;6.758;2022-08-01T01:36:44;17.30;;;9.73;;
55260;SDS011;41123;51.416;6.758;2022-08-01T01:39:11;18.15;;;10.02;;
55260;SDS011;41123;51.416;6.758;2022-08-01T01:41:39;17.63;;;9.90;;
55260;SDS011;41123;51.416;6.758;2022-08-01T01:44:06;19.00;;;9.75;;
55260;SDS011;41123;51.416;6.758;2022-08-01T01:46:32;18.23;;;9.60;;
55260;SDS011;41123;51.416;6.758;2022-08-01T01:48:59;21.00;;;10.13;;
55260;SDS011;41123;51.416;6.758;2022-08-01T01:51:25;19.23;;;9.50;;
55260;SDS011;41123;51.416;6.758;2022-08-01T01:53:52;18.85;;;10.15;;
55260;SDS011;41123;51.416;6.758;2022-08-01T01:56:19;21.60;;;10.15;;
55260;SDS011;41123;51.416;6.758;2022-08-01T01:58:48;15.40;;;9.52;;
55260;SDS011;41123;51.416;6.758;2022-08-01T02:01:14;17.92;;;10.63;;
55260;SDS011;41123;51.416;6.758;2022-08-01T02:03:42;18.48;;;10.77;;
55260;SDS011;41123;51.416;6.758;2022-08-01T02:06:09;19.20;;;10.63;;
55260;SDS011;41123;51.416;6.758;2022-08-01T02:08:37;18.52;;;10.75;;
55260;SDS011;41123;51.416;6.758;2022-08-01T02:11:05;20.15;;;11.18;;
55260;SDS011;41123;51.416;6.758;2022-08-01T02:13:43;18.77;;;10.37;;
55260;SDS011;41123;51.416;6.758;2022-08-01T02:16:10;20.30;;;10.43;;
55260;SDS011;41123;51.416;6.758;2022-08-01T02:18:37;21.45;;;10.65;;
55260;SDS011;41123;51.416;6.758;2022-08-01T02:21:04;18.55;;;10.30;;
55260;SDS011;41123;51.416;6.758;2022-08-01T02:23:32;20.88;;;11.25;;
55260;SDS011;41123;51.416;6.758;2022-08-01T02:26:00;21.42;;;11.32;;
55260;SDS011;41123;51.416;6.758;2022-08-01T02:28:29;19.92;;;11.20;;
55260;SDS011;41123;51.416;6.758;2022-08-01T02:30:56;19.95;;;11.30;;
55260;SDS011;41123;51.416;6.758;2022-08-01T02:33:27;20.90;;;11.40;;
55260;SDS011;41123;51.416;6.758;2022-08-01T02:35:57;24.42;;;12.35;;
55260;SDS011;41123;51.416;6.758;2022-08-01T02:38:25;22.13;;;11.65;;
55260;SDS011;41123;51.416;6.758;2022-08-01T02:40:54;21.23;;;11.68;;
55260;SDS011;41123;51.416;6.758;2022-08-01T02:43:23;23.25;;;12.18;;
55260;SDS011;41123;51.416;6.758;2022-08-01T02:45:51;23.50;;;11.57;;
55260;SDS011;41123;51.416;6.758;2022-08-01T02:48:19;26.50;;;12.50;;
55260;SDS011;41123;51.416;6.758;2022-08-01T02:50:47;23.25;;;12.10;;
55260;SDS011;41123;51.416;6.758;2022-08-01T02:53:14;24.33;;;12.00;;
55260;SDS011;41123;51.416;6.758;2022-08-01T02:55:40;23.50;;;12.32;;
55260;SDS011;41123;51.416;6.758;2022-08-01T02:58:07;24.95;;;12.75;;
55260;SDS011;41123;51.416;6.758;2022-08-01T03:00:35;22.55;;;12.20;;
55260;SDS011;41123;51.416;6.758;2022-08-01T03:03:02;23.88;;;12.20;;
55260;SDS011;41123;51.416;6.758;2022-08-01T03:05:29;23.05;;;13.40;;
55260;SDS011;41123;51.416;6.758;2022-08-01T03:07:57;26.53;;;13.17;;
55260;SDS011;41123;51.416;6.758;2022-08-01T03:10:26;25.98;;;13.23;;
55260;SDS011;41123;51.416;6.758;2022-08-01T03:12:52;31.13;;;14.18;;
55260;SDS011;41123;51.416;6.758;2022-08-01T03:15:19;27.17;;;14.27;;
55260;SDS011;41123;51.416;6.758;2022-08-01T03:17:47;29.42;;;14.82;;
55260;SDS011;41123;51.416;6.758;2022-08-01T03:20:14;26.83;;;14.45;;
55260;SDS011;41123;51.416;6.758;2022-08-01T03:22:42;27.55;;;13.90;;
55260;SDS011;41123;51.416;6.758;2022-08-01T03:25:09;28.45;;;14.70;;
55260;SDS011;41123;51.416;6.758;2022-08-01T03:27:36;29.70;;;15.15;;
55260;SDS011;41123;51.416;6.758;2022-08-01T03:30:03;32.85;;;15.63;;
55260;SDS011;41123;51.416;6.758;2022-08-01T03:32:30;30.50;;;15.10;;
55260;SDS011;41123;51.416;6.758;2022-08-01T03:34:57;30.42;;;16.38;;
55260;SDS011;41123;51.416;6.758;2022-08-01T03:37:24;37.53;;;15.98;;
55260;SDS011;41123;51.416;6.758;2022-08-01T03:39:56;31.05;;;16.60;;
55260;SDS011;41123;51.416;6.758;2022-08-01T03:42:29;31.10;;;15.82;;
55260;SDS011;41123;51.416;6.758;2022-08-01T03:44:58;35.57;;;16.07;;
55260;SDS011;41123;51.416;6.758;2022-08-01T03:47:26;32.85;;;16.20;;
55260;SDS011;41123;51.416;6.758;2022-08-01T03:49:55;35.90;;;17.23;;
55260;SDS011;41123;51.416;6.758;2022-08-01T03:52:22;30.48;;;16.77;;
55260;SDS011;41123;51.416;6.758;2022-08-01T03:54:49;31.73;;;16.50;;
55260;SDS011;41123;51.416;6.758;2022-08-01T03:57:16;31.17;;;15.82;;
55260;SDS011;41123;51.416;6.758;2022-08-01T03:59:43;32.88;;;16.08;;
55260;SDS011;41123;51.416;6.758;2022-08-01T04:02:09;31.67;;;16.05;;
55260;SDS011;41123;51.416;6.758;2022-08-01T04:04:37;31.77;;;16.70;;
55260;SDS011;41123;51.416;6.758;2022-08-01T04:07:03;32.45;;;16.27;;
55260;SDS011;41123;51.416;6.758;2022-08-01T04:09:32;32.50;;;16.30;;
55260;SDS011;41123;51.416;6.758;2022-08-01T04:11:58;30.23;;;15.90;;
55260;SDS011;41123;51.416;6.758;2022-08-01T04:14:26;27.05;;;15.80;;
55260;SDS011;41123;51.416;6.758;2022-08-01T04:16:53;36.65;;;17.00;;
55260;SDS011;41123;51.416;6.758;2022-08-01T04:19:19;29.33;;;16.35;;
55260;SDS011;41123;51.416;6.758;2022-08-01T04:21:46;34.00;;;17.05;;
55260;SDS011;41123;51.416;6.758;2022-08-01T04:24:13;33.70;;;16.60;;
55260;SDS011;41123;51.416;6.758;2022-08-01T04:26:41;31.20;;;16.33;;
55260;SDS011;41123;51.416;6.758;2022-08-01T04:29:09;28.13;;;15.82;;
55260;SDS011;41123;51.416;6.758;2022-08-01T04:31:36;32.15;;;16.02;;
55260;SDS011;41123;51.416;6.758;2022-08-01T04:34:03;32.27;;;16.53;;
55260;SDS011;41123;51.416;6.758;2022-08-01T04:36:30;28.77;;;15.93;;
55260;SDS011;41123;51.416;6.758;2022-08-01T04:38:59;27.50;;;15.45;;
55260;SDS011;41123;51.416;6.758;2022-08-01T04:41:26;30.67;;;15.82;;
55260;SDS011;41123;51.416;6.758;2022-08-01T04:43:52;28.63;;;15.63;;
55260;SDS011;41123;51.416;6.758;2022-08-01T04:46:20;28.85;;;15.57;;
55260;SDS011;41123;51.416;6.758;2022-08-01T04:48:46;25.33;;;14.68;;
55260;SDS011;41123;51.416;6.758;2022-08-01T04:51:14;28.70;;;15.43;;
55260;SDS011;41123;51.416;6.758;2022-08-01T04:53:40;26.65;;;14.98;;
55260;SDS011;41123;51.416;6.758;2022-08-01T04:56:07;27.40;;;15.33;;
55260;SDS011;41123;51.416;6.758;2022-08-01T04:58:33;27.83;;;14.50;;
55260;SDS011;41123;51.416;6.758;2022-08-01T05:01:00;28.52;;;14.52;;
55260;SDS011;41123;51.416;6.758;2022-08-01T05:03:26;26.88;;;14.77;;
55260;SDS011;41123;51.416;6.758;2022-08-01T05:05:52;27.52;;;14.60;;
55260;SDS011;41123;51.416;6.758;2022-08-01T05:08:18;26.85;;;14.20;;
55260;SDS011;41123;51.416;6.758;2022-08-01T05:10:45;28.48;;;14.85;;
55260;SDS011;41123;51.416;6.758;2022-08-01T05:13:11;27.50;;;14.27;;
55260;SDS011;41123;51.416;6.758;2022-08-01T05:15:37;23.70;;;13.80;;
55260;SDS011;41123;51.416;6.758;2022-08-01T05:18:04;27.55;;;14.23;;
55260;SDS011;41123;51.416;6.758;2022-08-01T05:20:30;23.75;;;13.98;;
55260;SDS011;41123;51.416;6.758;2022-08-01T05:22:56;28.20;;;14.18;;
55260;SDS011;41123;51.416;6.758;2022-08-01T05:25:23;25.58;;;13.68;;
55260;SDS011;41123;51.416;6.758;2022-08-01T05:27:49;25.98;;;14.00;;
55260;SDS011;41123;51.416;6.758;2022-08-01T05:30:15;24.63;;;13.50;;
55260;SDS011;41123;51.416;6.758;2022-08-01T05:32:42;24.58;;;13.68;;
55260;SDS011;41123;51.416;6.758;2022-08-01T05:35:08;25.48;;;13.80;;
55260;SDS011;41123;51.416;6.758;2022-08-01T05:37:34;22.80;;;13.70;;
55260;SDS011;41123;51.416;6.758;2022-08-01T05:40:01;24.13;;;12.90;;
55260;SDS011;41123;51.416;6.758;2022-08-01T05:42:27;21.38;;;13.15;;
55260;SDS011;41123;51.416;6.758;2022-08-01T05:44:53;23.58;;;12.85;;
55260;SDS011;41123;51.416;6.758;2022-08-01T05:47:19;23.27;;;12.70;;
55260;SDS011;41123;51.416;6.758;2022-08-01T05:49:46;23.88;;;13.27;;
55260;SDS011;41123;51.416;6.758;2022-08-01T05:52:12;22.58;;;11.85;;
55260;SDS011;41123;51.416;6.758;2022-08-01T05:54:39;21.30;;;12.30;;
55260;SDS011;41123;51.416;6.758;2022-08-01T05:57:05;23.60;;;12.30;;
55260;SDS011;41123;51.416;6.758;2022-08-01T05:59:32;23.00;;;12.63;;
55260;SDS011;41123;51.416;6.758;2022-08-01T06:01:58;21.10;;;12.13;;
55260;SDS011;41123;51.416;6.758;2022-08-01T06:04:24;22.70;;;11.73;;
55260;SDS011;41123;51.416;6.758;2022-08-01T06:06:50;20.25;;;11.85;;
55260;SDS011;41123;51.416;6.758;2022-08-01T06:09:16;20.98;;;11.77;;
55260;SDS011;41123;51.416;6.758;2022-08-01T06:11:43;22.90;;;11.98;;
55260;SDS011;41123;51.416;6.758;2022-08-01T06:14:09;20.23;;;11.43;;
55260;SDS011;41123;51.416;6.758;2022-08-01T06:16:35;20.00;;;10.93;;
55260;SDS011;41123;51.416;6.758;2022-08-01T06:19:01;19.47;;;10.77;;
55260;SDS011;41123;51.416;6.758;2022-08-01T06:21:27;17.73;;;10.57;;
55260;SDS011;41123;51.416;6.758;2022-08-01T06:23:54;16.27;;;9.75;;
55260;SDS011;41123;51.416;6.758;2022-08-01T06:26:20;15.77;;;9.47;;
55260;SDS011;41123;51.416;6.758;2022-08-01T06:28:46;17.90;;;9.43;;
55260;SDS011;41123;51.416;6.758;2022-08-01T06:31:12;14.32;;;8.70;;
55260;SDS011;41123;51.416;6.758;2022-08-01T06:33:40;17.80;;;9.33;;
55260;SDS011;41123;51.416;6.758;2022-08-01T06:36:07;16.15;;;9.15;;
55260;SDS011;41123;51.416;6.758;2022-08-01T06:38:34;15.05;;;8.63;;
55260;SDS011;41123;51.416;6.758;2022-08-01T06:41:00;16.27;;;9.15;;
55260;SDS011;41123;51.416;6.758;2022-08-01T06:43:27;15.88;;;8.57;;
55260;SDS011;41123;51.416;6.758;2022-08-01T06:45:53;13.50;;;7.93;;
55260;SDS011;41123;51.416;6.758;2022-08-01T06:48:20;12.40;;;7.45;;
55260;SDS011;41123;51.416;6.758;2022-08-01T06:50:46;13.27;;;7.47;;
55260;SDS011;41123;51.416;6.758;2022-08-01T06:53:12;11.35;;;6.75;;
55260;SDS011;41123;51.416;6.758;2022-08-01T06:55:38;12.73;;;6.25;;
55260;SDS011;41123;51.416;6.758;2022-08-01T06:58:04;13.38;;;6.00;;
55260;SDS011;41123;51.416;6.758;2022-08-01T07:00:30;10.95;;;6.35;;
55260;SDS011;41123;51.416;6.758;2022-08-01T07:02:57;10.95;;;6.60;;
55260;SDS011;41123;51.416;6.758;2022-08-01T07:05:25;8.97;;;5.50;;
55260;SDS011;41123;51.416;6.758;2022-08-01T07:07:51;9.27;;;5.50;;
55260;SDS011;41123;51.416;6.758;2022-08-01T07:10:17;8.60;;;4.78;;
55260;SDS011;41123;51.416;6.758;2022-08-01T07:12:44;8.55;;;4.70;;
55260;SDS011;41123;51.416;6.758;2022-08-01T07:15:10;9.43;;;5.35;;
55260;SDS011;41123;51.416;6.758;2022-08-01T07:17:40;9.13;;;5.35;;
55260;SDS011;41123;51.416;6.758;2022-08-01T07:20:07;9.30;;;5.63;;
55260;SDS011;41123;51.416;6.758;2022-08-01T07:22:34;10.68;;;5.70;;
55260;SDS011;41123;51.416;6.758;2022-08-01T07:25:00;12.13;;;6.05;;
55260;SDS011;41123;51.416;6.758;2022-08-01T07:27:26;10.70;;;6.10;;
55260;SDS011;41123;51.416;6.758;2022-08-01T07:29:53;9.85;;;6.28;;
55260;SDS011;41123;51.416;6.758;2022-08-01T07:32:19;10.45;;;5.50;;
55260;SDS011;41123;51.416;6.758;2022-08-01T07:34:45;8.35;;;5.38;;
55260;SDS011;41123;51.416;6.758;2022-08-01T07:37:11;10.30;;;5.03;;
55260;SDS011;41123;51.416;6.758;2022-08-01T07:39:37;9.35;;;5.53;;
55260;SDS011;41123;51.416;6.758;2022-08-01T07:42:03;8.45;;;4.75;;
55260;SDS011;41123;51.416;6.758;2022-08-01T07:44:30;11.05;;;4.60;;
55260;SDS011;41123;51.416;6.758;2022-08-01T07:46:56;7.82;;;3.88;;
55260;SDS011;41123;51.416;6.758;2022-08-01T07:49:22;5.70;;;3.20;;
55260;SDS011;41123;51.416;6.758;2022-08-01T07:51:48;6.72;;;3.33;;
55260;SDS011;41123;51.416;6.758;2022-08-01T07:54:15;4.88;;;3.10;;
55260;SDS011;41123;51.416;6.758;2022-08-01T07:56:41;5.75;;;3.30;;
55260;SDS011;41123;51.416;6.758;2022-08-01T07:59:07;5.80;;;3.55;;
55260;SDS011;41123;51.416;6.758;2022-08-01T08:01:33;7.15;;;3.95;;
55260;SDS011;41123;51.416;6.758;2022-08-01T08:03:59;8.30;;;3.80;;
55260;SDS011;41123;51.416;6.758;2022-08-01T08:06:26;7.93;;;3.50;;
55260;SDS011;41123;51.416;6.758;2022-08-01T08:08:52;6.72;;;3.97;;
55260;SDS011;41123;51.416;6.758;2022-08-01T08:11:18;9.90;;;3.50;;
55260;SDS011;41123;51.416;6.758;2022-08-01T08:13:45;7.65;;;3.72;;
55260;SDS011;41123;51.416;6.758;2022-08-01T08:16:11;7.70;;;3.00;;
55260;SDS011;41123;51.416;6.758;2022-08-01T08:18:37;5.00;;;3.13;;
55260;SDS011;41123;51.416;6.758;2022-08-01T08:21:03;4.85;;;2.80;;
55260;SDS011;41123;51.416;6.758;2022-08-01T08:23:30;5.65;;;2.80;;
55260;SDS011;41123;51.416;6.758;2022-08-01T08:26:15;5.00;;;2.67;;
55260;SDS011;41123;51.416;6.758;2022-08-01T08:28:41;5.63;;;2.60;;
55260;SDS011;41123;51.416;6.758;2022-08-01T08:31:07;5.00;;;2.95;;
55260;SDS011;41123;51.416;6.758;2022-08-01T08:33:33;6.03;;;2.88;;
55260;SDS011;41123;51.416;6.758;2022-08-01T08:36:00;5.13;;;2.70;;
55260;SDS011;41123;51.416;6.758;2022-08-01T08:38:26;4.22;;;2.30;;
55260;SDS011;41123;51.416;6.758;2022-08-01T08:40:52;4.43;;;2.20;;
55260;SDS011;41123;51.416;6.758;2022-08-01T08:43:18;5.53;;;2.20;;
55260;SDS011;41123;51.416;6.758;2022-08-01T08:45:45;4.55;;;2.22;;
55260;SDS011;41123;51.416;6.758;2022-08-01T08:48:12;4.68;;;2.22;;
55260;SDS011;41123;51.416;6.758;2022-08-01T08:50:38;3.30;;;2.10;;
55260;SDS011;41123;51.416;6.758;2022-08-01T08:53:06;3.40;;;1.85;;
55260;SDS011;41123;51.416;6.758;2022-08-01T08:55:35;3.95;;;1.70;;
55260;SDS011;41123;51.416;6.758;2022-08-01T08:58:02;4.10;;;1.92;;
55260;SDS011;41123;51.416;6.758;2022-08-01T09:00:31;4.38;;;1.95;;
55260;SDS011;41123;51.416;6.758;2022-08-01T09:02:58;4.05;;;1.83;;
55260;SDS011;41123;51.416;6.758;2022-08-01T09:05:24;2.65;;;1.60;;
55260;SDS011;41123;51.416;6.758;2022-08-01T09:07:51;3.55;;;1.90;;
55260;SDS011;41123;51.416;6.758;2022-08-01T09:10:17;3.50;;;1.83;;
55260;SDS011;41123;51.416;6.758;2022-08-01T09:15:46;4.03;;;1.80;;
55260;SDS011;41123;51.416;6.758;2022-08-01T09:21:07;3.10;;;1.67;;
55260;SDS011;41123;51.416;6.758;2022-08-01T09:26:18;4.87;;;2.07;;
55260;SDS011;41123;51.416;6.758;2022-08-01T09:28:44;3.17;;;1.88;;
55260;SDS011;41123;51.416;6.758;2022-08-01T09:31:12;3.38;;;1.90;;
55260;SDS011;41123;51.416;6.758;2022-08-01T09:33:55;4.45;;;2.10;;
55260;SDS011;41123;51.416;6.758;2022-08-01T09:36:25;2.70;;;2.20;;
55260;SDS011;41123;51.416;6.758;2022-08-01T09:38:52;3.88;;;2.40;;
55260;SDS011;41123;51.416;6.758;2022-08-01T09:41:29;3.42;;;2.20;;
55260;SDS011;41123;51.416;6.758;2022-08-01T09:43:56;3.50;;;2.40;;
55260;SDS011;41123;51.416;6.758;2022-08-01T09:46:23;3.92;;;1.95;;
55260;SDS011;41123;51.416;6.758;2022-08-01T09:48:57;3.63;;;2.38;;
55260;SDS011;41123;51.416;6.758;2022-08-01T09:51:30;2.22;;;1.50;;
55260;SDS011;41123;51.416;6.758;2022-08-01T09:53:56;2.20;;;1.73;;
55260;SDS011;41123;51.416;6.758;2022-08-01T09:56:24;3.45;;;1.70;;
55260;SDS011;41123;51.416;6.758;2022-08-01T09:58:57;6.93;;;1.80;;
55260;SDS011;41123;51.416;6.758;2022-08-01T10:01:24;3.00;;;1.60;;
55260;SDS011;41123;51.416;6.758;2022-08-01T10:06:32;4.07;;;2.53;;
55260;SDS011;41123;51.416;6.758;2022-08-01T10:08:58;3.65;;;2.00;;
55260;SDS011;41123;51.416;6.758;2022-08-01T10:11:24;2.55;;;2.10;;
55260;SDS011;41123;51.416;6.758;2022-08-01T10:13:50;4.72;;;2.30;;
55260;SDS011;41123;51.416;6.758;2022-08-01T10:16:19;3.03;;;2.30;;
55260;SDS011;41123;51.416;6.758;2022-08-01T10:18:45;3.85;;;2.20;;
55260;SDS011;41123;51.416;6.758;2022-08-01T10:21:12;4.05;;;2.50;;
55260;SDS011;41123;51.416;6.758;2022-08-01T10:23:39;3.42;;;2.30;;
55260;SDS011;41123;51.416;6.758;2022-08-01T10:26:07;3.60;;;2.30;;
55260;SDS011;41123;51.416;6.758;2022-08-01T10:28:34;4.70;;;2.30;;
55260;SDS011;41123;51.416;6.758;2022-08-01T10:31:02;3.03;;;1.63;;
55260;SDS011;41123;51.416;6.758;2022-08-01T10:33:29;1.60;;;1.33;;
55260;SDS011;41123;51.416;6.758;2022-08-01T10:35:55;4.20;;;1.50;;
55260;SDS011;41123;51.416;6.758;2022-08-01T10:38:21;2.22;;;1.70;;
55260;SDS011;41123;51.416;6.758;2022-08-01T10:40:48;3.90;;;1.50;;
55260;SDS011;41123;51.416;6.758;2022-08-01T10:43:15;2.40;;;1.80;;
55260;SDS011;41123;51.416;6.758;2022-08-01T10:45:42;3.50;;;1.40;;
55260;SDS011;41123;51.416;6.758;2022-08-01T10:48:39;2.30;;;1.67;;
55260;SDS011;41123;51.416;6.758;2022-08-01T10:51:07;4.00;;;1.70;;
55260;SDS011;41123;51.416;6.758;2022-08-01T10:53:33;5.90;;;3.65;;
55260;SDS011;41123;51.416;6.758;2022-08-01T10:56:02;3.45;;;2.30;;
55260;SDS011;41123;51.416;6.758;2022-08-01T10:58:33;5.55;;;3.15;;
55260;SDS011;41123;51.416;6.758;2022-08-01T11:04:26;5.50;;;1.40;;
55260;SDS011;41123;51.416;6.758;2022-08-01T11:09:15;3.25;;;1.63;;
55260;SDS011;41123;51.416;6.758;2022-08-01T11:12:05;4.80;;;1.67;;
55260;SDS011;41123;51.416;6.758;2022-08-01T11:14:34;3.53;;;1.50;;
55260;SDS011;41123;51.416;6.758;2022-08-01T11:20:12;4.87;;;1.90;;
55260;SDS011;41123;51.416;6.758;2022-08-01T11:25:28;4.32;;;1.75;;
55260;SDS011;41123;51.416;6.758;2022-08-01T11:30:43;2.40;;;1.30;;
55260;SDS011;41123;51.416;6.758;2022-08-01T11:33:10;2.40;;;1.10;;
55260;SDS011;41123;51.416;6.758;2022-08-01T11:35:36;1.42;;;1.10;;
55260;SDS011;41123;51.416;6.758;2022-08-01T11:38:22;2.72;;;1.00;;
55260;SDS011;41123;51.416;6.758;2022-08-01T11:43:34;1.95;;;1.15;;
55260;SDS011;41123;51.416;6.758;2022-08-01T11:46:00;2.10;;;1.20;;
55260;SDS011;41123;51.416;6.758;2022-08-01T11:48:27;2.00;;;1.00;;
55260;SDS011;41123;51.416;6.758;2022-08-01T11:50:54;2.40;;;0.90;;
55260;SDS011;41123;51.416;6.758;2022-08-01T11:53:21;2.28;;;1.10;;
55260;SDS011;41123;51.416;6.758;2022-08-01T11:55:48;2.42;;;1.20;;
55260;SDS011;41123;51.416;6.758;2022-08-01T11:58:15;3.33;;;1.67;;
55260;SDS011;41123;51.416;6.758;2022-08-01T12:00:42;2.28;;;1.60;;
55260;SDS011;41123;51.416;6.758;2022-08-01T12:03:15;2.05;;;1.30;;
55260;SDS011;41123;51.416;6.758;2022-08-01T12:05:43;2.17;;;1.30;;
55260;SDS011;41123;51.416;6.758;2022-08-01T12:08:10;2.53;;;1.30;;
55260;SDS011;41123;51.416;6.758;2022-08-01T12:10:36;2.45;;;1.20;;
55260;SDS011;41123;51.416;6.758;2022-08-01T12:13:03;2.42;;;1.30;;
55260;SDS011;41123;51.416;6.758;2022-08-01T12:15:33;1.83;;;1.40;;
55260;SDS011;41123;51.416;6.758;2022-08-01T12:18:01;2.25;;;1.08;;
55260;SDS011;41123;51.416;6.758;2022-08-01T12:20:31;3.28;;;1.52;;
55260;SDS011;41123;51.416;6.758;2022-08-01T12:22:59;2.20;;;1.35;;
55260;SDS011;41123;51.416;6.758;2022-08-01T12:25:25;2.53;;;1.30;;
55260;SDS011;41123;51.416;6.758;2022-08-01T12:27:51;2.20;;;1.60;;
55260;SDS011;41123;51.416;6.758;2022-08-01T12:30:19;1.65;;;1.40;;
55260;SDS011;41123;51.416;6.758;2022-08-01T12:32:50;4.43;;;1.38;;
55260;SDS011;41123;51.416;6.758;2022-08-01T12:35:18;2.50;;;1.55;;
55260;SDS011;41123;51.416;6.758;2022-08-01T12:37:46;2.38;;;1.70;;
55260;SDS011;41123;51.416;6.758;2022-08-01T12:42:40;1.73;;;1.30;;
55260;SDS011;41123;51.416;6.758;2022-08-01T12:45:07;2.28;;;1.30;;
55260;SDS011;41123;51.416;6.758;2022-08-01T12:47:35;2.88;;;1.25;;
55260;SDS011;41123;51.416;6.758;2022-08-01T12:50:01;1.65;;;1.10;;
55260;SDS011;41123;51.416;6.758;2022-08-01T12:52:27;2.08;;;1.20;;
55260;SDS011;41123;51.416;6.758;2022-08-01T12:57:28;3.42;;;1.50;;
55260;SDS011;41123;51.416;6.758;2022-08-01T13:02:37;2.55;;;1.40;;
55260;SDS011;41123;51.416;6.758;2022-08-01T13:05:04;2.97;;;1.13;;
55260;SDS011;41123;51.416;6.758;2022-08-01T13:10:03;4.43;;;1.30;;
55260;SDS011;41123;51.416;6.758;2022-08-01T13:12:29;3.90;;;1.30;;
55260;SDS011;41123;51.416;6.758;2022-08-01T13:14:56;4.13;;;1.50;;
55260;SDS011;41123;51.416;6.758;2022-08-01T13:17:35;3.50;;;1.70;;
55260;SDS011;41123;51.416;6.758;2022-08-01T13:20:03;2.53;;;1.30;;
55260;SDS011;41123;51.416;6.758;2022-08-01T13:22:34;3.30;;;1.30;;
55260;SDS011;41123;51.416;6.758;2022-08-01T13:25:13;3.15;;;1.30;;
55260;SDS011;41123;51.416;6.758;2022-08-01T13:27:39;3.33;;;1.40;;
55260;SDS011;41123;51.416;6.758;2022-08-01T13:30:27;1.85;;;1.17;;
55260;SDS011;41123;51.416;6.758;2022-08-01T13:32:58;2.65;;;1.40;;
55260;SDS011;41123;51.416;6.758;2022-08-01T13:35:25;2.67;;;1.20;;
55260;SDS011;41123;51.416;6.758;2022-08-01T13:37:52;3.17;;;1.30;;
55260;SDS011;41123;51.416;6.758;2022-08-01T13:40:25;6.20;;;1.88;;
55260;SDS011;41123;51.416;6.758;2022-08-01T13:42:52;5.18;;;1.85;;
55260;SDS011;41123;51.416;6.758;2022-08-01T13:45:19;5.03;;;1.98;;
55260;SDS011;41123;51.416;6.758;2022-08-01T13:47:45;3.58;;;1.80;;
55260;SDS011;41123;51.416;6.758;2022-08-01T13:50:11;3.65;;;1.55;;
55260;SDS011;41123;51.416;6.758;2022-08-01T13:52:38;3.55;;;1.40;;
55260;SDS011;41123;51.416;6.758;2022-08-01T13:55:04;2.83;;;1.30;;
55260;SDS011;41123;51.416;6.758;2022-08-01T13:57:30;2.47;;;1.20;;
55260;SDS011;41123;51.416;6.758;2022-08-01T13:59:56;3.85;;;1.50;;
55260;SDS011;41123;51.416;6.758;2022-08-01T14:02:27;3.78;;;1.42;;
55260;SDS011;41123;51.416;6.758;2022-08-01T14:04:54;2.92;;;1.35;;
55260;SDS011;41123;51.416;6.758;2022-08-01T14:07:20;3.28;;;1.45;;
55260;SDS011;41123;51.416;6.758;2022-08-01T14:09:47;4.75;;;1.60;;
55260;SDS011;41123;51.416;6.758;2022-08-01T14:12:13;3.50;;;1.48;;
55260;SDS011;41123;51.416;6.758;2022-08-01T14:14:39;4.93;;;1.52;;
55260;SDS011;41123;51.416;6.758;2022-08-01T14:17:05;5.82;;;1.60;;
55260;SDS011;41123;51.416;6.758;2022-08-01T14:19:31;3.33;;;1.60;;
55260;SDS011;41123;51.416;6.758;2022-08-01T14:21:58;4.32;;;1.65;;
55260;SDS011;41123;51.416;6.758;2022-08-01T14:24:24;6.45;;;3.25;;
55260;SDS011;41123;51.416;6.758;2022-08-01T14:26:51;6.65;;;2.97;;
55260;SDS011;41123;51.416;6.758;2022-08-01T14:29:17;6.43;;;2.80;;
55260;SDS011;41123;51.416;6.758;2022-08-01T14:31:43;5.50;;;2.35;;
55260;SDS011;41123;51.416;6.758;2022-08-01T14:34:10;4.13;;;2.10;;
55260;SDS011;41123;51.416;6.758;2022-08-01T14:36:38;4.80;;;2.10;;
55260;SDS011;41123;51.416;6.758;2022-08-01T14:39:04;5.30;;;2.00;;
55260;SDS011;41123;51.416;6.758;2022-08-01T14:41:30;4.57;;;1.77;;
55260;SDS011;41123;51.416;6.758;2022-08-01T14:43:56;3.83;;;1.60;;
55260;SDS011;41123;51.416;6.758;2022-08-01T14:46:24;2.60;;;1.30;;
55260;SDS011;41123;51.416;6.758;2022-08-01T14:48:51;2.87;;;1.20;;
55260;SDS011;41123;51.416;6.758;2022-08-01T14:51:17;2.77;;;1.50;;
55260;SDS011;41123;51.416;6.758;2022-08-01T14:53:43;3.65;;;1.50;;
55260;SDS011;41123;51.416;6.758;2022-08-01T14:56:09;5.18;;;1.55;;
55260;SDS011;41123;51.416;6.758;2022-08-01T14:58:35;2.47;;;1.52;;
55260;SDS011;41123;51.416;6.758;2022-08-01T15:01:02;3.78;;;1.60;;
55260;SDS011;41123;51.416;6.758;2022-08-01T15:03:29;3.60;;;1.65;;
55260;SDS011;41123;51.416;6.758;2022-08-01T15:05:56;5.43;;;1.63;;
55260;SDS011;41123;51.416;6.758;2022-08-01T15:08:23;2.53;;;1.55;;
55260;SDS011;41123;51.416;6.758;2022-08-01T15:10:49;3.63;;;1.60;;
55260;SDS011;41123;51.416;6.758;2022-08-01T15:13:15;3.00;;;1.40;;
55260;SDS011;41123;51.416;6.758;2022-08-01T15:15:41;3.67;;;1.73;;
55260;SDS011;41123;51.416;6.758;2022-08-01T15:18:08;5.20;;;1.43;;
55260;SDS011;41123;51.416;6.758;2022-08-01T15:20:34;4.80;;;1.77;;
55260;SDS011;41123;51.416;6.758;2022-08-01T15:23:00;4.65;;;1.65;;
55260;SDS011;41123;51.416;6.758;2022-08-01T15:25:26;4.22;;;1.45;;